Time;durP1;ratioP1;P1;durP2;ratioP2;P2;SDS_P1;SDS_P2;PMS_P1;PMS_P2;Temp;Humidity;BMP_temperature;BMP_pressure;BME280_temperature;BME280_humidity;BME280_pressure;Samples;Min_cycle;Max_cycle;Signal;HPM_P1;HPM_P2
2023/04/19 00:01:06;;;;;;;7.10;4.60;;;16.90;80.00;;;;;;5011629;28;20045;-61
2023/04/19 00:03:32;;;;;;;8.70;4.78;;;16.90;82.30;;;;;;5001972;28;20085;-60
2023/04/19 00:05:58;;;;;;;7.25;4.53;;;16.80;82.30;;;;;;5011329;28;20384;-59
2023/04/19 00:08:25;;;;;;;7.35;4.90;;;16.50;80.70;;;;;;5011097;28;20041;-60
2023/04/19 00:10:51;;;;;;;7.35;4.82;;;;;;;;;;5008034;28;20108;-59
2023/04/19 00:13:17;;;;;;;7.10;4.70;;;;;;;;;;5003589;28;20057;-60
2023/04/19 00:15:43;;;;;;;8.68;4.70;;;;;;;;;;5009125;28;20103;-61
2023/04/19 00:18:09;;;;;;;6.65;4.45;;;16.90;79.50;;;;;;5006051;28;20095;-61
2023/04/19 00:20:35;;;;;;;9.80;5.35;;;16.60;82.50;;;;;;5010301;28;20046;-59
2023/04/19 00:23:00;;;;;;;10.30;4.55;;;16.90;79.70;;;;;;5010692;28;20099;-61
2023/04/19 00:25:28;;;;;;;8.68;5.15;;;17.00;80.30;;;;;;5010854;28;20100;-60
2023/04/19 00:27:54;;;;;;;7.43;4.43;;;16.60;82.50;;;;;;5012772;28;20049;-61
2023/04/19 00:30:19;;;;;;;8.38;4.72;;;16.90;82.60;;;;;;5007790;28;20080;-60
2023/04/19 00:32:45;;;;;;;9.38;4.95;;;;;;;;;;4993832;28;20038;-60
2023/04/19 00:35:12;;;;;;;8.05;4.63;;;;;;;;;;4993705;28;20118;-60
2023/04/19 00:37:37;;;;;;;7.30;5.00;;;16.90;80.30;;;;;;4993144;28;20065;-61
2023/04/19 00:40:04;;;;;;;7.95;5.05;;;17.00;81.50;;;;;;4993140;28;20496;-60
2023/04/19 00:42:30;;;;;;;9.40;5.28;;;16.60;82.60;;;;;;5000238;28;20076;-60
2023/04/19 00:44:56;;;;;;;9.13;4.75;;;16.80;80.60;;;;;;5012693;28;20042;-60
2023/04/19 00:47:22;;;;;;;9.23;5.85;;;;;;;;;;5025241;28;20131;-60
2023/04/19 00:49:48;;;;;;;7.97;5.10;;;16.90;82.80;;;;;;5012602;28;20046;-61
2023/04/19 00:52:14;;;;;;;7.97;4.57;;;;;;;;;;5012238;28;20048;-61
2023/04/19 00:54:40;;;;;;;7.13;5.10;;;17.10;83.00;;;;;;5012820;28;20093;-60
2023/04/19 00:57:06;;;;;;;7.68;5.38;;;16.70;79.00;;;;;;5011281;28;20042;-61
2023/04/19 00:59:32;;;;;;;8.85;5.35;;;17.10;83.10;;;;;;5012895;28;20046;-60
2023/04/19 01:01:58;;;;;;;7.53;5.18;;;17.00;83.00;;;;;;5014122;28;20044;-61
2023/04/19 01:04:24;;;;;;;9.20;5.05;;;;;;;;;;5013412;28;20484;-61
2023/04/19 01:06:50;;;;;;;8.55;5.75;;;16.90;82.80;;;;;;4997060;28;20042;-60
2023/04/19 01:09:16;;;;;;;8.18;5.30;;;;;;;;;;4995676;28;20081;-61
2023/04/19 01:11:42;;;;;;;8.63;5.47;;;17.10;83.10;;;;;;5002658;28;20049;-61
2023/04/19 01:14:08;;;;;;;8.63;5.43;;;;;;;;;;5016409;28;20381;-61
2023/04/19 01:16:35;;;;;;;7.75;4.75;;;16.80;83.00;;;;;;5016543;28;20046;-60
2023/04/19 01:19:00;;;;;;;8.52;5.28;;;16.80;81.70;;;;;;5016415;28;20053;-60
2023/04/19 01:21:29;;;;;;;8.75;5.20;;;;;;;;;;5012095;28;20392;-67
2023/04/19 01:23:55;;;;;;;9.27;5.72;;;16.80;83.00;;;;;;4996881;28;20042;-69
2023/04/19 01:26:21;;;;;;;8.75;5.80;;;16.70;82.90;;;;;;4996576;28;20518;-60
2023/04/19 01:28:46;;;;;;;10.45;5.93;;;16.80;83.00;;;;;;4996878;28;20050;-60
2023/04/19 01:31:12;;;;;;;8.73;5.43;;;16.80;83.00;;;;;;4999923;28;20034;-60
2023/04/19 01:33:38;;;;;;;7.60;5.15;;;;;;;;;;5012105;28;20530;-61
2023/04/19 01:36:04;;;;;;;9.23;6.20;;;16.70;79.70;;;;;;5014717;28;20135;-60
2023/04/19 01:38:30;;;;;;;8.00;5.28;;;16.50;82.70;;;;;;5015148;28;20133;-60
2023/04/19 01:40:56;;;;;;;10.13;6.10;;;16.90;80.00;;;;;;5015915;28;20046;-61
2023/04/19 01:43:22;;;;;;;7.43;4.85;;;16.60;83.00;;;;;;5015081;28;20049;-61
2023/04/19 01:45:48;;;;;;;8.35;5.63;;;16.90;79.50;;;;;;5012822;28;20046;-60
2023/04/19 01:48:14;;;;;;;10.05;5.70;;;;;;;;;;5015256;28;20045;-60
2023/04/19 01:50:40;;;;;;;8.23;5.28;;;16.80;82.50;;;;;;4998135;28;20042;-60
2023/04/19 01:53:05;;;;;;;8.38;5.45;;;16.60;82.80;;;;;;5024255;28;20080;-60
2023/04/19 01:55:32;;;;;;;8.15;5.82;;;;;;;;;;5010708;28;20049;-60
2023/04/19 01:57:58;;;;;;;10.27;5.47;;;;;;;;;;5003498;28;20084;-60
2023/04/19 02:00:24;;;;;;;8.32;5.32;;;16.60;80.50;;;;;;4998717;28;20491;-60
2023/04/19 02:02:49;;;;;;;8.02;5.43;;;16.60;82.60;;;;;;5003595;28;20046;-60
2023/04/19 02:05:16;;;;;;;8.48;5.43;;;;;;;;;;5015127;28;20054;-61
2023/04/19 02:07:41;;;;;;;10.77;5.25;;;16.70;82.70;;;;;;5015461;28;20050;-61
2023/04/19 02:10:09;;;;;;;10.27;5.93;;;16.30;82.50;;;;;;5015744;28;20103;-60
2023/04/19 02:12:35;;;;;;;9.45;5.40;;;;;;;;;;5012517;28;20048;-62
2023/04/19 02:15:02;;;;;;;10.00;5.40;;;16.70;82.50;;;;;;4996899;28;20054;-60
2023/04/19 02:17:28;;;;;;;8.95;5.30;;;;;;;;;;4996055;28;20443;-60
2023/04/19 02:19:53;;;;;;;9.77;5.65;;;16.30;82.10;;;;;;4995735;28;20042;-60
2023/04/19 02:22:20;;;;;;;8.05;5.25;;;;;;;;;;4994468;28;20089;-62
2023/04/19 02:24:46;;;;;;;7.50;5.00;;;;;;;;;;5012677;28;20054;-60
2023/04/19 02:27:12;;;;;;;9.18;4.82;;;16.70;82.30;;;;;;5015110;28;20132;-60
2023/04/19 02:29:38;;;;;;;8.57;5.13;;;;;;;;;;5008038;28;20177;-60
2023/04/19 02:32:05;;;;;;;11.05;5.28;;;16.70;82.10;;;;;;4997708;28;20768;-60
2023/04/19 02:34:32;;;;;;;7.72;5.18;;;16.80;78.40;;;;;;5013167;28;20053;-61
2023/04/19 02:36:57;;;;;;;8.65;5.18;;;16.60;82.00;;;;;;5014921;28;20129;-60
2023/04/19 02:39:23;;;;;;;8.75;5.25;;;16.80;82.10;;;;;;5012654;28;20566;-62
2023/04/19 02:41:49;;;;;;;9.07;5.40;;;16.60;81.90;;;;;;5015169;28;20041;-60
2023/04/19 02:44:15;;;;;;;8.30;5.25;;;16.80;78.40;;;;;;5012579;28;20484;-60
2023/04/19 02:46:41;;;;;;;8.98;4.97;;;16.30;81.80;;;;;;5014828;28;20046;-62
2023/04/19 02:49:08;;;;;;;9.13;5.10;;;;;;;;;;5014975;28;20072;-62
2023/04/19 02:51:33;;;;;;;8.73;5.53;;;16.50;79.30;;;;;;5014959;28;20423;-61
2023/04/19 02:53:59;;;;;;;8.20;5.05;;;16.70;81.80;;;;;;5005833;28;20099;-60
2023/04/19 02:56:25;;;;;;;9.77;5.38;;;16.50;81.70;;;;;;5014765;28;20049;-61
2023/04/19 02:58:53;;;;;;;7.75;5.32;;;;;;;;;;5014551;28;20057;-60
2023/04/19 03:01:19;;;;;;;11.25;5.75;;;;;;;;;;5014725;28;20046;-60
2023/04/19 03:03:45;;;;;;;8.25;4.78;;;16.60;81.60;;;;;;5008519;28;20034;-60
2023/04/19 03:06:11;;;;;;;9.00;5.32;;;;;;;;;;5011765;28;20056;-61
2023/04/19 03:08:37;;;;;;;8.38;5.47;;;;;;;;;;4996154;28;20129;-61
2023/04/19 03:11:05;;;;;;;8.35;5.22;;;16.70;81.70;;;;;;4995032;28;20053;-62
2023/04/19 03:13:30;;;;;;;8.38;5.18;;;16.30;81.60;;;;;;4993480;28;20090;-61
2023/04/19 03:15:57;;;;;;;9.43;5.50;;;;;;;;;;5011637;28;20074;-62
2023/04/19 03:18:23;;;;;;;9.60;5.30;;;;;;;;;;5014209;28;20034;-61
2023/04/19 03:20:49;;;;;;;9.20;5.00;;;16.50;81.60;;;;;;5013750;28;20053;-61
2023/04/19 03:23:15;;;;;;;8.40;4.85;;;16.50;81.70;;;;;;5013794;28;20488;-61
2023/04/19 03:25:40;;;;;;;10.15;5.25;;;16.40;81.10;;;;;;5005915;28;20125;-60
2023/04/19 03:28:06;;;;;;;7.47;4.63;;;16.20;81.50;;;;;;4993599;28;20117;-61
2023/04/19 03:30:32;;;;;;;7.38;4.88;;;;;;;;;;4993991;28;20129;-60
2023/04/19 03:32:59;;;;;;;8.95;4.63;;;;;;;;;;5010151;28;20045;-60
2023/04/19 03:35:25;;;;;;;9.38;5.78;;;16.50;81.60;;;;;;5011658;28;20050;-60
2023/04/19 03:37:51;;;;;;;7.45;4.97;;;;;;;;;;5012072;28;20112;-61
2023/04/19 03:40:17;;;;;;;7.30;4.80;;;16.40;81.50;;;;;;5003411;28;20366;-62
2023/04/19 03:42:43;;;;;;;8.05;4.97;;;16.30;81.50;;;;;;4994045;28;20046;-61
2023/04/19 03:45:09;;;;;;;9.00;4.80;;;;;;;;;;5009260;28;20061;-62
2023/04/19 03:47:35;;;;;;;8.40;5.07;;;;;;;;;;5010800;28;20127;-61
2023/04/19 03:50:01;;;;;;;7.65;4.93;;;16.30;81.60;;;;;;5013996;28;20437;-60
2023/04/19 03:52:27;;;;;;;8.63;5.18;;;;;;;;;;5013609;28;20499;-60
2023/04/19 03:54:53;;;;;;;9.93;4.90;;;16.40;81.70;;;;;;5003162;28;20111;-60
2023/04/19 03:57:19;;;;;;;8.90;5.00;;;16.30;79.40;;;;;;5005761;28;20121;-60
2023/04/19 03:59:45;;;;;;;7.97;4.82;;;;;;;;;;5013519;28;20081;-62
2023/04/19 04:02:11;;;;;;;7.15;4.45;;;16.40;81.70;;;;;;5013328;28;20514;-61
2023/04/19 04:04:37;;;;;;;7.80;4.80;;;;;;;;;;5007860;28;20042;-60
2023/04/19 04:07:03;;;;;;;9.15;4.95;;;;;;;;;;4999856;28;20044;-61
2023/04/19 04:09:29;;;;;;;7.90;4.47;;;16.40;81.60;;;;;;5012585;28;20124;-60
2023/04/19 04:11:54;;;;;;;6.97;4.40;;;16.40;81.50;;;;;;5013553;28;20117;-60
2023/04/19 04:14:21;;;;;;;7.90;4.95;;;;;;;;;;5012571;28;20042;-60
2023/04/19 04:16:46;;;;;;;7.97;4.60;;;16.30;81.30;;;;;;5012115;28;20053;-60
2023/04/19 04:19:12;;;;;;;6.65;4.38;;;16.30;81.40;;;;;;5008888;28;20484;-60
2023/04/19 04:21:38;;;;;;;9.40;5.00;;;;;;;;;;4993918;28;20081;-60
2023/04/19 04:24:04;;;;;;;8.40;4.40;;;16.20;81.30;;;;;;4993521;28;20042;-61
2023/04/19 04:26:32;;;;;;;6.80;4.43;;;16.30;81.30;;;;;;4993458;28;20049;-61
2023/04/19 04:29:00;;;;;;;8.90;4.57;;;16.40;81.30;;;;;;5001732;28;20121;-60
2023/04/19 04:31:27;;;;;;;6.70;4.10;;;16.20;77.10;;;;;;5011327;28;20108;-61
2023/04/19 04:33:54;;;;;;;8.80;4.80;;;;;;;;;;5013020;28;20044;-61
2023/04/19 04:36:20;;;;;;;8.23;4.70;;;;;;;;;;5011681;28;20408;-61
2023/04/19 04:38:46;;;;;;;7.88;4.78;;;16.70;79.50;;;;;;5011757;28;20049;-61
2023/04/19 04:41:12;;;;;;;8.68;5.05;;;16.40;81.00;;;;;;5013297;28;20037;-61
2023/04/19 04:43:38;;;;;;;7.47;4.32;;;16.60;81.10;;;;;;5012798;28;20046;-61
2023/04/19 04:46:04;;;;;;;6.60;4.15;;;16.50;80.90;;;;;;5003270;28;20073;-61
2023/04/19 04:48:30;;;;;;;7.20;4.10;;;;;;;;;;5011301;28;20042;-60
2023/04/19 04:50:56;;;;;;;8.07;4.40;;;16.50;80.60;;;;;;5012716;28;20078;-60
2023/04/19 04:53:27;;;;;;;6.88;4.18;;;16.50;77.40;;;;;;5013045;28;20115;-61
2023/04/19 04:55:53;;;;;;;8.63;4.25;;;16.60;80.60;;;;;;5010688;28;20046;-60
2023/04/19 04:58:19;;;;;;;7.97;4.32;;;16.40;80.30;;;;;;5012264;28;20042;-60
2023/04/19 05:00:45;;;;;;;7.63;4.53;;;16.80;80.40;;;;;;5012546;28;20510;-61
2023/04/19 05:03:12;;;;;;;6.18;4.00;;;;;;;;;;5011998;28;20440;-60
2023/04/19 05:05:38;;;;;;;7.25;4.00;;;;;;;;;;5012894;28;20050;-62
2023/04/19 05:08:04;;;;;;;7.20;3.92;;;16.90;75.90;;;;;;5012635;28;20050;-61
2023/04/19 05:10:29;;;;;;;8.00;4.60;;;16.80;79.80;;;;;;4998509;28;20058;-62
2023/04/19 05:12:55;;;;;;;6.88;4.32;;;17.00;79.80;;;;;;4992939;28;20042;-61
2023/04/19 05:15:21;;;;;;;6.43;4.10;;;;;;;;;;4993188;28;20057;-61
2023/04/19 05:17:47;;;;;;;6.03;3.80;;;17.30;79.80;;;;;;5006126;28;20396;-61
2023/04/19 05:20:13;;;;;;;6.80;4.28;;;;;;;;;;5009525;28;20050;-62
2023/04/19 05:22:39;;;;;;;6.88;3.72;;;;;;;;;;5011560;28;20045;-60
2023/04/19 05:25:06;;;;;;;8.63;4.63;;;17.10;75.40;;;;;;5012495;28;20357;-60
2023/04/19 05:27:32;;;;;;;6.93;3.85;;;17.40;78.00;;;;;;5012675;28;20046;-60
2023/04/19 05:29:57;;;;;;;6.57;3.75;;;17.30;79.10;;;;;;5010634;28;20096;-61
2023/04/19 05:32:23;;;;;;;6.35;4.10;;;;;;;;;;5012317;28;20067;-61
2023/04/19 05:34:49;;;;;;;8.48;4.22;;;17.50;78.80;;;;;;5010993;28;20057;-61
2023/04/19 05:37:15;;;;;;;6.22;3.78;;;;;;;;;;5002937;28;20058;-61
2023/04/19 05:39:41;;;;;;;7.00;3.65;;;17.60;78.40;;;;;;4992699;28;20141;-61
2023/04/19 05:42:07;;;;;;;6.80;3.58;;;17.90;78.30;;;;;;5012282;28;20120;-61
2023/04/19 05:44:33;;;;;;;6.90;4.03;;;17.70;77.90;;;;;;5010385;28;20058;-63
2023/04/19 05:46:59;;;;;;;8.98;3.85;;;18.40;78.10;;;;;;5003091;28;20050;-60
2023/04/19 05:49:25;;;;;;;7.32;3.75;;;;;;;;;;4996539;28;20050;-61
2023/04/19 05:51:53;;;;;;;6.65;3.13;;;18.40;76.90;;;;;;5010891;28;20522;-61
2023/04/19 05:54:18;;;;;;;6.18;3.20;;;18.60;77.20;;;;;;5010763;28;20053;-61
2023/04/19 05:56:44;;;;;;;6.85;3.65;;;18.60;77.20;;;;;;5013701;28;20491;-62
2023/04/19 05:59:10;;;;;;;6.00;3.63;;;18.70;76.30;;;;;;5015909;28;20053;-61
2023/04/19 06:01:36;;;;;;;6.10;3.50;;;18.90;76.80;;;;;;5015109;28;20065;-62
2023/04/19 06:04:02;;;;;;;5.93;3.40;;;18.80;76.50;;;;;;5015866;28;20042;-61
2023/04/19 06:06:28;;;;;;;5.32;3.30;;;;;;;;;;5013610;28;20034;-63
2023/04/19 06:08:54;;;;;;;5.47;3.33;;;;;;;;;;5015235;28;20480;-62
2023/04/19 06:11:21;;;;;;;7.05;3.47;;;;;;;;;;5008911;28;20046;-63
2023/04/19 06:13:47;;;;;;;6.43;3.40;;;19.20;75.70;;;;;;5014502;28;20460;-60
2023/04/19 06:16:13;;;;;;;6.35;3.10;;;;;;;;;;5015309;28;20128;-61
2023/04/19 06:18:39;;;;;;;5.05;3.20;;;19.40;75.60;;;;;;5013796;28;20045;-60
2023/04/19 06:21:06;;;;;;;5.75;3.17;;;;;;;;;;5014245;28;20053;-61
2023/04/19 06:23:31;;;;;;;7.22;3.58;;;19.60;75.40;;;;;;5015389;28;20049;-60
2023/04/19 06:25:57;;;;;;;5.97;3.33;;;19.80;75.40;;;;;;5015385;28;20049;-61
2023/04/19 06:28:23;;;;;;;6.63;3.22;;;19.80;74.40;;;;;;5002366;28;20043;-61
2023/04/19 06:30:49;;;;;;;6.07;3.05;;;19.80;72.60;;;;;;5007996;28;20042;-61
2023/04/19 06:33:14;;;;;;;6.32;3.78;;;20.00;75.00;;;;;;4999051;28;20124;-61
2023/04/19 06:35:40;;;;;;;5.47;3.35;;;20.10;74.80;;;;;;5015020;28;20129;-61
2023/04/19 06:38:06;;;;;;;5.18;2.80;;;;;;;;;;5015356;28;20080;-69
2023/04/19 06:40:33;;;;;;;5.90;3.40;;;;;;;;;;5014960;28;20041;-61
2023/04/19 06:42:59;;;;;;;5.63;3.30;;;20.40;74.30;;;;;;5014813;28;20416;-61
2023/04/19 06:45:25;;;;;;;5.30;2.92;;;20.20;74.20;;;;;;5013139;28;20050;-60
2023/04/19 06:47:51;;;;;;;6.72;3.03;;;;;;;;;;5015347;28;20157;-60
2023/04/19 06:50:17;;;;;;;6.40;3.00;;;;;;;;;;5015108;28;20089;-60
2023/04/19 06:52:43;;;;;;;5.82;3.33;;;;;;;;;;5000351;28;20037;-60
2023/04/19 06:55:09;;;;;;;6.80;2.88;;;20.50;73.60;;;;;;5014846;28;20050;-62
2023/04/19 06:57:35;;;;;;;8.00;2.58;;;20.50;73.60;;;;;;5011520;28;20091;-59
2023/04/19 07:00:03;;;;;;;5.40;2.80;;;20.80;73.60;;;;;;5012614;28;20190;-60
2023/04/19 07:02:28;;;;;;;7.82;2.95;;;20.70;72.80;;;;;;5014197;28;20050;-60
2023/04/19 07:04:54;;;;;;;6.15;2.80;;;20.70;70.10;;;;;;5014859;28;20046;-60
2023/04/19 07:07:20;;;;;;;7.22;2.95;;;20.80;72.40;;;;;;5013550;28;20149;-60
2023/04/19 07:09:46;;;;;;;6.68;3.17;;;20.80;72.70;;;;;;5004221;28;20042;-60
2023/04/19 07:12:12;;;;;;;8.25;3.40;;;20.90;69.20;;;;;;5009789;28;20430;-67
2023/04/19 07:14:38;;;;;;;6.30;3.65;;;;;;;;;;5006780;28;20058;-71
2023/04/19 07:17:04;;;;;;;7.60;3.10;;;;;;;;;;4999443;28;20097;-62
2023/04/19 07:19:30;;;;;;;5.32;2.72;;;20.20;72.00;;;;;;5009409;28;20053;-60
2023/04/19 07:21:56;;;;;;;12.05;3.75;;;19.80;72.10;;;;;;5014593;28;20042;-61
2023/04/19 07:24:22;;;;;;;10.90;3.30;;;;;;;;;;5014638;28;20073;-60
2023/04/19 07:26:48;;;;;;;6.72;3.30;;;;;;;;;;5014575;28;20046;-60
2023/04/19 07:29:14;;;;;;;5.38;2.92;;;20.30;72.40;;;;;;5014499;28;20057;-60
2023/04/19 07:31:40;;;;;;;7.43;3.13;;;20.50;72.80;;;;;;5014138;28;20400;-60
2023/04/19 07:34:06;;;;;;;7.30;3.58;;;20.30;72.70;;;;;;5014332;28;20053;-60
2023/04/19 07:36:35;;;;;;;5.50;3.17;;;;;;;;;;5013070;28;20855;-60
2023/04/19 07:39:01;;;;;;;8.48;3.45;;;20.70;70.00;;;;;;5014220;28;20384;-60
2023/04/19 07:41:27;;;;;;;4.65;2.83;;;20.80;72.90;;;;;;5013938;28;20057;-60
2023/04/19 07:43:53;;;;;;;6.43;3.13;;;20.80;72.90;;;;;;5014023;28;20483;-60
2023/04/19 07:46:19;;;;;;;7.25;3.05;;;20.90;72.80;;;;;;5014333;28;20052;-60
2023/04/19 07:48:45;;;;;;;6.15;3.00;;;20.90;72.20;;;;;;5013706;28;20046;-60
2023/04/19 07:51:11;;;;;;;5.32;2.90;;;21.10;73.00;;;;;;5014094;28;20054;-60
2023/04/19 07:53:38;;;;;;;5.78;2.95;;;;;;;;;;5000841;28;20045;-61
2023/04/19 07:56:05;;;;;;;4.72;2.60;;;21.20;72.20;;;;;;4994336;28;20046;-60
2023/04/19 07:58:31;;;;;;;5.68;2.60;;;21.20;72.60;;;;;;4994333;28;20046;-61
2023/04/19 08:00:57;;;;;;;4.88;2.65;;;21.20;72.40;;;;;;4993706;28;20053;-60
2023/04/19 08:03:23;;;;;;;6.53;2.97;;;;;;;;;;4994352;28;20104;-62
2023/04/19 08:05:49;;;;;;;5.75;2.80;;;21.20;72.40;;;;;;4994283;28;20177;-60
2023/04/19 08:08:15;;;;;;;5.38;2.67;;;;;;;;;;4994264;28;20129;-61
2023/04/19 08:10:41;;;;;;;5.90;2.75;;;21.30;72.20;;;;;;5007056;28;20096;-62
2023/04/19 08:13:07;;;;;;;4.53;2.42;;;21.20;72.10;;;;;;5013332;28;20054;-60
2023/04/19 08:15:33;;;;;;;5.45;2.92;;;21.30;72.10;;;;;;5013663;28;20141;-63
2023/04/19 08:17:59;;;;;;;6.75;2.60;;;21.20;70.60;;;;;;4998909;28;20049;-62
2023/04/19 08:20:25;;;;;;;4.95;2.55;;;;;;;;;;4993834;28;20500;-61
2023/04/19 08:22:53;;;;;;;5.63;2.75;;;21.20;71.70;;;;;;4993936;28;20507;-60
2023/04/19 08:25:18;;;;;;;5.95;2.83;;;21.40;71.90;;;;;;4993666;28;20192;-60
2023/04/19 08:27:44;;;;;;;5.82;2.72;;;;;;;;;;4994555;28;20459;-60
2023/04/19 08:30:11;;;;;;;4.97;2.45;;;;;;;;;;4993102;28;20038;-68
2023/04/19 08:32:37;;;;;;;4.03;2.08;;;;;;;;;;4993748;28;20408;-60
2023/04/19 08:35:04;;;;;;;4.40;2.10;;;21.30;71.50;;;;;;4993783;28;20458;-61
2023/04/19 08:37:30;;;;;;;4.07;2.22;;;;;;;;;;4993251;28;20089;-61
2023/04/19 08:39:56;;;;;;;3.83;2.00;;;21.50;71.40;;;;;;4993314;28;20050;-61
2023/04/19 08:42:22;;;;;;;4.93;2.28;;;;;;;;;;4993316;28;20053;-65
2023/04/19 08:44:48;;;;;;;5.47;2.10;;;;;;;;;;4994020;28;20050;-60
2023/04/19 08:47:15;;;;;;;5.32;2.10;;;21.10;68.10;;;;;;4991994;28;20046;-61
2023/04/19 08:49:41;;;;;;;5.70;2.33;;;;;;;;;;4992238;28;20242;-60
2023/04/19 08:52:07;;;;;;;7.63;2.30;;;;;;;;;;4992260;28;20058;-61
2023/04/19 08:54:34;;;;;;;3.97;1.90;;;21.40;68.00;;;;;;4991944;28;20057;-61
2023/04/19 08:57:00;;;;;;;2.95;1.67;;;21.20;70.40;;;;;;4993544;28;20447;-61
2023/04/19 08:59:29;;;;;;;4.30;2.13;;;21.20;69.10;;;;;;4993352;28;20047;-61
2023/04/19 09:01:58;;;;;;;4.13;2.00;;;21.30;70.60;;;;;;4994061;28;20100;-60
2023/04/19 09:04:24;;;;;;;3.67;2.00;;;21.00;70.90;;;;;;4993516;28;20046;-60
2023/04/19 09:06:50;;;;;;;3.67;1.88;;;21.10;70.80;;;;;;4992222;28;20042;-61
2023/04/19 09:09:23;;;;;;;4.22;1.88;;;21.30;71.10;;;;;;4993479;28;20038;-61
2023/04/19 09:11:49;;;;;;;3.60;2.08;;;21.20;71.00;;;;;;4993390;28;20046;-61
2023/04/19 09:14:17;;;;;;;4.97;2.00;;;21.50;71.10;;;;;;4993274;28;20393;-61
2023/04/19 09:16:43;;;;;;;5.03;2.00;;;21.20;70.60;;;;;;4992956;28;20054;-60
2023/04/19 09:19:11;;;;;;;3.47;1.80;;;21.40;70.50;;;;;;5010285;28;20148;-60
2023/04/19 09:21:37;;;;;;;5.13;2.13;;;21.20;70.40;;;;;;5014204;28;20049;-60
2023/04/19 09:24:03;;;;;;;5.65;2.35;;;21.10;70.10;;;;;;5016852;28;20046;-61
2023/04/19 09:26:29;;;;;;;5.15;2.22;;;;;;;;;;5016462;28;20495;-60
2023/04/19 09:29:03;;;;;;;3.90;2.00;;;21.10;66.70;;;;;;5016370;28;20052;-61
2023/04/19 09:31:30;;;;;;;5.25;1.98;;;21.00;67.80;;;;;;5016576;28;20049;-61
2023/04/19 09:33:55;;;;;;;3.03;1.75;;;21.00;67.90;;;;;;5016096;28;20115;-61
2023/04/19 09:36:31;;;;;;;5.13;1.95;;;20.80;69.90;;;;;;5015049;28;20057;-60
2023/04/19 09:38:58;;;;;;;5.05;1.80;;;21.00;70.30;;;;;;5016526;28;20046;-60
2023/04/19 09:41:24;;;;;;;6.30;2.05;;;20.60;70.10;;;;;;5016550;28;20753;-62
2023/04/19 09:43:51;;;;;;;3.70;1.70;;;;;;;;;;5016105;28;20057;-61
2023/04/19 09:46:33;;;;;;;4.40;1.80;;;21.00;69.70;;;;;;5014924;28;20479;-61
2023/04/19 09:49:15;;;;;;;3.63;1.73;;;20.80;70.00;;;;;;5016111;28;20152;-60
2023/04/19 09:51:47;;;;;;;3.90;2.00;;;20.80;70.40;;;;;;5009914;28;20054;-61
2023/04/19 09:54:15;;;;;;;4.43;1.88;;;20.70;70.60;;;;;;4996356;28;20043;-60
2023/04/19 09:56:41;;;;;;;3.53;1.70;;;20.80;70.80;;;;;;4996696;28;20467;-61
2023/04/19 09:59:07;;;;;;;3.83;1.73;;;20.60;70.70;;;;;;4996541;28;20038;-61
2023/04/19 10:01:36;;;;;;;3.95;1.67;;;20.50;70.70;;;;;;4996235;28;20157;-62
2023/04/19 10:04:04;;;;;;;4.50;1.75;;;20.60;70.70;;;;;;4996524;28;20125;-61
2023/04/19 10:06:31;;;;;;;3.85;1.73;;;20.60;69.40;;;;;;4996441;28;20392;-62
2023/04/19 10:08:57;;;;;;;3.08;1.50;;;20.40;70.80;;;;;;5018587;28;20045;-61
2023/04/19 10:11:24;;;;;;;3.00;1.50;;;20.30;70.90;;;;;;5015651;28;20123;-60
2023/04/19 10:13:50;;;;;;;3.50;1.63;;;;;;;;;;5015580;28;20042;-60
2023/04/19 10:16:16;;;;;;;6.28;1.48;;;20.20;71.20;;;;;;5015549;28;20163;-61
2023/04/19 10:18:41;;;;;;;4.25;1.77;;;20.50;71.40;;;;;;5015847;28;20042;-60
2023/04/19 10:21:07;;;;;;;3.78;1.60;;;20.30;71.40;;;;;;5014272;28;20045;-60
2023/04/19 10:23:33;;;;;;;3.67;1.70;;;;;;;;;;5014644;28;20042;-62
2023/04/19 10:26:00;;;;;;;5.93;1.95;;;;;;;;;;5013594;28;20050;-61
2023/04/19 10:28:29;;;;;;;4.88;1.85;;;20.00;71.50;;;;;;5015234;28;20058;-61
2023/04/19 10:31:02;;;;;;;4.35;1.63;;;20.10;71.80;;;;;;5015232;28;20046;-61
2023/04/19 10:33:30;;;;;;;4.53;1.80;;;20.00;71.90;;;;;;5015043;28;20050;-61
2023/04/19 10:35:57;;;;;;;3.97;1.80;;;20.00;68.40;;;;;;5030380;28;20137;-63
2023/04/19 10:38:35;;;;;;;3.42;1.73;;;19.80;71.80;;;;;;5015271;28;20057;-60
2023/04/19 10:41:02;;;;;;;3.42;1.55;;;19.50;71.70;;;;;;5015261;28;20512;-61
2023/04/19 10:43:35;;;;;;;3.20;1.40;;;20.00;67.80;;;;;;5003657;28;20043;-61
2023/04/19 10:46:07;;;;;;;;;;;19.60;69.40;;;;;;4996253;28;20484;-62
2023/04/19 10:48:36;;;;;;;4.32;1.70;;;19.90;69.30;;;;;;4995329;28;19921;-62
2023/04/19 10:51:17;;;;;;;3.30;1.60;;;19.90;72.30;;;;;;4995172;28;20125;-61
2023/04/19 10:53:50;;;;;;;3.30;1.67;;;20.00;72.40;;;;;;4995588;28;20455;-61
2023/04/19 10:56:40;;;;;;;4.20;1.52;;;19.70;72.30;;;;;;4995213;28;20042;-61
2023/04/19 10:59:12;;;;;;;3.83;1.58;;;19.80;70.20;;;;;;4994342;28;20050;-61
2023/04/19 11:01:45;;;;;;;3.42;1.67;;;19.70;70.20;;;;;;4995150;28;20061;-62
2023/04/19 11:04:12;;;;;;;4.45;1.60;;;19.70;71.40;;;;;;4995428;28;20080;-61
2023/04/19 11:07:00;;;;;;;3.63;1.63;;;19.80;69.90;;;;;;4995248;28;20050;-63
2023/04/19 11:09:37;;;;;;;4.38;1.80;;;19.50;72.60;;;;;;5010205;28;20392;-64
2023/04/19 11:12:07;;;;;;;4.03;1.70;;;19.70;71.90;;;;;;4995205;28;20046;-62
2023/04/19 11:14:35;;;;;;;3.78;1.92;;;19.60;71.40;;;;;;4994907;28;20058;-62
2023/04/19 11:17:14;;;;;;;3.88;1.63;;;;;;;;;;5003379;28;20057;-61
2023/04/19 11:19:43;;;;;;;4.20;1.90;;;19.70;73.00;;;;;;5013319;28;20595;-61
2023/04/19 11:22:09;;;;;;;3.85;1.80;;;19.70;73.10;;;;;;5014306;28;20056;-60
2023/04/19 11:24:35;;;;;;;3.83;1.77;;;;;;;;;;5014312;28;20050;-61
2023/04/19 11:27:01;;;;;;;6.07;1.85;;;19.50;72.10;;;;;;5014168;28;20071;-61
2023/04/19 11:29:27;;;;;;;5.22;1.90;;;;;;;;;;4996653;28;20065;-61
2023/04/19 11:31:53;;;;;;;4.22;2.00;;;19.60;72.90;;;;;;5014514;28;20038;-61
2023/04/19 11:34:22;;;;;;;4.30;1.98;;;19.60;69.70;;;;;;5013226;28;20056;-61
2023/04/19 11:36:51;;;;;;;5.70;1.88;;;19.70;73.20;;;;;;5014161;28;20124;-60
2023/04/19 11:39:17;;;;;;;3.63;1.90;;;19.50;69.90;;;;;;5014172;28;20050;-60
2023/04/19 11:41:43;;;;;;;5.55;2.55;;;19.70;73.20;;;;;;5014325;28;20480;-60
2023/04/19 11:44:13;;;;;;;4.57;1.90;;;19.60;68.20;;;;;;5013602;28;20050;-62
2023/04/19 11:46:39;;;;;;;6.00;2.38;;;;;;;;;;5014194;28;20049;-62
2023/04/19 11:49:06;;;;;;;3.65;2.05;;;19.50;73.10;;;;;;5014102;28;20038;-61
2023/04/19 11:51:32;;;;;;;3.63;1.92;;;19.40;73.10;;;;;;5029128;28;20080;-60
2023/04/19 11:53:58;;;;;;;4.13;2.10;;;;;;;;;;5013790;28;20116;-62
2023/04/19 11:56:23;;;;;;;3.50;1.80;;;19.60;73.10;;;;;;5012616;28;20044;-61
2023/04/19 11:58:50;;;;;;;6.63;2.00;;;;;;;;;;5013953;28;20152;-63
2023/04/19 12:01:18;;;;;;;4.47;2.08;;;19.50;72.10;;;;;;5014045;28;20396;-61
2023/04/19 12:03:44;;;;;;;4.80;2.35;;;19.40;73.20;;;;;;5013653;28;20061;-62
2023/04/19 12:06:24;;;;;;;5.35;2.10;;;19.50;70.00;;;;;;5013486;28;20054;-62
2023/04/19 12:08:51;;;;;;;4.45;2.05;;;;;;;;;;4999140;28;20057;-63
2023/04/19 12:11:18;;;;;;;4.78;2.15;;;19.30;69.90;;;;;;4993733;28;20046;-61
2023/04/19 12:13:44;;;;;;;4.38;2.10;;;19.40;73.40;;;;;;4993608;28;20050;-62
2023/04/19 12:16:10;;;;;;;4.35;1.90;;;19.40;73.50;;;;;;4993742;28;20050;-61
2023/04/19 12:18:49;;;;;;;3.95;1.90;;;19.40;70.60;;;;;;4993796;28;20188;-61
2023/04/19 12:21:29;;;;;;;3.90;1.80;;;19.70;69.20;;;;;;4994062;28;20476;-62
2023/04/19 12:23:59;;;;;;;3.75;1.90;;;19.60;73.60;;;;;;4993744;28;20038;-60
2023/04/19 12:26:27;;;;;;;5.22;1.88;;;19.60;73.50;;;;;;4993834;28;20133;-60
2023/04/19 12:28:56;;;;;;;3.55;1.77;;;19.50;73.50;;;;;;4994009;28;20440;-60
2023/04/19 12:31:22;;;;;;;3.72;2.03;;;19.60;73.30;;;;;;4993703;28;20045;-61
2023/04/19 12:33:48;;;;;;;5.35;1.90;;;19.50;73.50;;;;;;4993972;28;20049;-60
2023/04/19 12:36:14;;;;;;;4.15;1.98;;;19.40;73.40;;;;;;4993562;28;20467;-60
2023/04/19 12:38:40;;;;;;;3.72;1.70;;;19.60;72.90;;;;;;4993708;28;20125;-59
2023/04/19 12:41:06;;;;;;;6.43;2.30;;;;;;;;;;4993737;28;20057;-60
2023/04/19 12:43:32;;;;;;;4.25;1.70;;;19.40;73.60;;;;;;5013198;28;20049;-60
2023/04/19 12:45:58;;;;;;;3.10;1.83;;;19.60;73.80;;;;;;5013605;28;20092;-60
2023/04/19 12:48:25;;;;;;;4.78;2.00;;;19.50;73.60;;;;;;5013589;28;20089;-60
2023/04/19 12:50:51;;;;;;;5.78;2.13;;;19.60;71.80;;;;;;5013054;28;20050;-60
2023/04/19 12:53:17;;;;;;;5.72;2.25;;;;;;;;;;5012200;28;20049;-61
2023/04/19 12:55:46;;;;;;;5.10;1.90;;;19.70;73.70;;;;;;5012437;28;20045;-61
2023/04/19 12:58:15;;;;;;;4.22;1.70;;;19.50;73.80;;;;;;5012865;28;20108;-60
2023/04/19 13:00:41;;;;;;;3.17;1.60;;;19.60;73.60;;;;;;5012837;28;20054;-60
2023/04/19 13:03:07;;;;;;;3.17;1.50;;;19.60;73.90;;;;;;5013216;28;20088;-60
2023/04/19 13:05:33;;;;;;;4.07;1.92;;;19.50;73.80;;;;;;5012841;28;20088;-60
2023/04/19 13:07:59;;;;;;;5.50;1.90;;;19.70;74.00;;;;;;5013331;28;20038;-59
2023/04/19 13:10:25;;;;;;;5.07;2.00;;;19.50;73.80;;;;;;5012963;28;20554;-60
2023/04/19 13:12:50;;;;;;;4.82;1.60;;;19.50;73.80;;;;;;5013041;28;20139;-61
2023/04/19 13:15:17;;;;;;;3.90;2.00;;;;;;;;;;5012874;28;20160;-60